ADDS METAR Data INFO
IDs: Format: Raw Decoded Include TAF

Data at: 1408 UTC 12 Dec 2017

KCBK 121355Z AUTO 27009KT 10SM CLR M06/M09 A3034 RMK AO2
KCBK 121335Z AUTO 26008KT 10SM CLR M07/M10 A3034 RMK AO2
KCBK 121315Z AUTO 27009KT 10SM CLR M07/M09 A3035 RMK AO2
KCBK 121255Z AUTO 26008KT 10SM CLR M08/M10 A3035 RMK AO2
KCBK 121235Z AUTO 26008KT 10SM CLR M08/M10 A3036 RMK AO2
KCBK 121215Z AUTO 26005KT 10SM CLR M08/M10 A3036 RMK AO2
KCBK 121155Z AUTO 27006KT 10SM CLR M08/M10 A3037 RMK AO2
KCBK 121135Z AUTO 26006KT 10SM CLR M08/M09 A3038 RMK AO2
KCBK 121115Z AUTO 26006KT 10SM CLR M07/M08 A3039 RMK AO2
KCBK 121055Z AUTO 26007KT 10SM CLR M08/M09 A3040 RMK AO2
KCBK 121035Z AUTO 25007KT 10SM CLR M07/M08 A3041 RMK AO2
KCBK 121015Z AUTO 27007KT 10SM CLR M06/M07 A3041 RMK AO2
KCBK 120955Z AUTO 28006KT 10SM CLR M05/M07 A3042 RMK AO2
KCBK 120935Z AUTO 30008KT 10SM CLR M04/M06 A3041 RMK AO2
KCBK 120915Z AUTO 32008KT 10SM CLR M03/M05 A3042 RMK AO2
KCBK 120855Z AUTO 32009KT 10SM CLR M04/M06 A3042 RMK AO2
KCBK 120835Z AUTO 32009KT 10SM CLR M04/M06 A3042 RMK AO2
KCBK 120815Z AUTO 32009KT 10SM CLR M04/M06 A3042 RMK AO2
KCBK 120755Z AUTO 32010KT 10SM CLR M04/M06 A3042 RMK AO2
KCBK 120735Z AUTO 33009KT 10SM CLR M03/M05 A3043 RMK AO2
KCBK 120715Z AUTO 32008KT 10SM CLR M05/M07 A3043 RMK AO2
KCBK 120655Z AUTO 30009KT 10SM CLR M03/M06 A3043 RMK AO2
KCBK 120635Z AUTO 33010KT 10SM CLR M03/M05 A3043 RMK AO2
KCBK 120615Z AUTO 32009KT 10SM CLR M03/M05 A3044 RMK AO2
KCBK 120555Z AUTO 33010KT 10SM CLR M03/M06 A3043 RMK AO2
KCBK 120535Z AUTO 32008KT 10SM CLR M03/M06 A3043 RMK AO2
KCBK 120515Z AUTO 32007KT 10SM CLR M02/M06 A3043 RMK AO2
KCBK 120455Z AUTO 33009KT 10SM CLR M01/M05 A3043 RMK AO2
KCBK 120435Z AUTO 33010KT 10SM CLR 00/M04 A3042 RMK AO2
KCBK 120415Z AUTO 34008KT 10SM CLR 00/M04 A3043 RMK AO2
KCBK 120355Z AUTO 33009KT 10SM CLR 00/M04 A3042 RMK AO2
KCBK 120335Z AUTO 34009KT 10SM CLR 00/M04 A3042 RMK AO2
KCBK 120315Z AUTO 33009KT 10SM CLR 01/M05 A3041 RMK AO2
KCBK 120255Z AUTO 35010KT 10SM CLR 03/M03 A3041 RMK AO2
KCBK 120235Z AUTO 36011KT 10SM CLR 02/M04 A3041 RMK AO2
KCBK 120215Z AUTO 36011KT 10SM CLR 02/M04 A3040 RMK AO2
KCBK 120155Z AUTO 36009KT 10SM CLR 03/M05 A3040 RMK AO2
KCBK 120135Z AUTO 35008KT 10SM CLR 03/M06 A3038 RMK AO2
KCBK 120115Z AUTO 36008KT 10SM SCT120 03/M06 A3037 RMK AO2
KCBK 120055Z AUTO 35007KT 10SM BKN120 05/M07 A3035 RMK AO2
KCBK 120035Z AUTO 35006KT 10SM SCT120 05/M07 A3034 RMK AO2
KCBK 120015Z AUTO 36008KT 10SM SCT120 04/M07 A3034 RMK AO2
KCBK 112355Z AUTO 36008KT 10SM CLR 05/M08 A3032 RMK AO2
KCBK 112335Z AUTO 36008KT 10SM CLR 06/M08 A3031 RMK AO2
KCBK 112315Z AUTO 36010G16KT 10SM CLR 08/M08 A3031 RMK AO2
KCBK 112255Z AUTO 36012G20KT 10SM CLR 09/M08 A3030 RMK AO2
KCBK 112235Z AUTO 36015G23KT 10SM CLR 10/M08 A3029 RMK AO2
KCBK 112215Z AUTO 36021G26KT 10SM CLR 11/M09 A3027 RMK AO2
KCBK 112155Z AUTO 36020G26KT 10SM CLR 12/M09 A3027 RMK AO2
KCBK 112135Z AUTO 35016G23KT 10SM CLR 12/M08 A3026 RMK AO2
KCBK 112115Z AUTO 34016G29KT 10SM CLR 13/M08 A3025 RMK AO2
KCBK 112055Z AUTO 34023G30KT 10SM CLR 13/M07 A3024 RMK AO2
KCBK 112035Z AUTO 35023G32KT 10SM CLR 13/M07 A3023 RMK AO2
KCBK 112015Z AUTO 34025G31KT 10SM CLR 13/M07 A3022 RMK AO2
KCBK 111955Z AUTO 34024G34KT 10SM CLR 14/M07 A3021 RMK AO2
KCBK 111935Z AUTO 34021G31KT 10SM CLR 15/M07 A3021 RMK AO2
KCBK 111915Z AUTO 34026G32KT 10SM CLR 15/M07 A3021 RMK AO2
KCBK 111855Z AUTO 33024G32KT 10SM CLR 14/M06 A3023 RMK AO2
KCBK 111835Z AUTO 33025G35KT 10SM CLR 14/M06 A3023 RMK AO2
KCBK 111815Z AUTO 34022G31KT 10SM CLR 14/M06 A3023 RMK AO2
KCBK 111755Z AUTO 33025G33KT 10SM CLR 13/M07 A3024 RMK AO2
KCBK 111735Z AUTO 33027G36KT 10SM CLR 13/M07 A3025 RMK AO2
KCBK 111715Z AUTO 33022G32KT 10SM CLR 13/M06 A3025 RMK AO2
KCBK 111655Z AUTO 32021G31KT 10SM CLR 13/M06 A3025 RMK AO2
KCBK 111635Z AUTO 31017G26KT 10SM CLR 12/M06 A3026 RMK AO2
KCBK 111615Z AUTO 31018G22KT 10SM CLR 12/M07 A3025 RMK AO2
KCBK 111555Z AUTO 31015G22KT 10SM CLR 10/M07 A3026 RMK AO2
KCBK 111535Z AUTO 31015G19KT 10SM CLR 08/M08 A3026 RMK AO2
KCBK 111515Z AUTO 31010KT 10SM CLR 05/M08 A3025 RMK AO2
KCBK 111455Z AUTO 31008KT 10SM CLR 02/M10 A3025 RMK AO2
KCBK 111435Z AUTO 31009KT 10SM CLR 01/M10 A3025 RMK AO2
KCBK 111415Z AUTO 31010KT 10SM CLR 01/M11 A3025 RMK AO2
KCBK 111355Z AUTO 31009KT 10SM CLR 01/M11 A3025 RMK AO2
KCBK 111335Z AUTO 30010KT 10SM CLR 02/M11 A3024 RMK AO2
KCBK 111315Z AUTO 30011KT 10SM CLR 03/M11 A3024 RMK AO2
KCBK 111255Z AUTO 30013KT 10SM CLR 03/M11 A3024 RMK AO2
KCBK 111235Z AUTO 30014KT 10SM CLR 03/M11 A3023 RMK AO2
KCBK 111215Z AUTO 29013KT 10SM CLR 03/M11 A3023 RMK AO2
KCBK 111155Z AUTO 29014G18KT 10SM CLR 03/M11 A3021 RMK AO2
KCBK 111135Z AUTO 29013KT 10SM CLR 03/M11 A3021 RMK AO2
KCBK 111115Z AUTO 29012KT 10SM CLR 01/M11 A3022 RMK AO2
KCBK 111055Z AUTO 28010KT 10SM CLR 00/M11 A3022 RMK AO2
KCBK 111035Z AUTO 29011KT 10SM CLR 00/M11 A3022 RMK AO2
KCBK 111015Z AUTO 29011KT 10SM CLR 01/M11 A3022 RMK AO2
KCBK 110955Z AUTO 29010KT 10SM CLR 01/M12 A3022 RMK AO2
KCBK 110935Z AUTO 28012KT 10SM CLR 00/M12 A3023 RMK AO2
KCBK 110915Z AUTO 29011KT 10SM CLR 01/M12 A3023 RMK AO2
KCBK 110855Z AUTO 29011KT 10SM CLR 01/M12 A3023 RMK AO2
KCBK 110835Z AUTO 29010KT 10SM CLR 00/M12 A3023 RMK AO2
KCBK 110815Z AUTO 28012KT 10SM CLR 00/M12 A3023 RMK AO2
KCBK 110755Z AUTO 27010KT 10SM CLR 00/M12 A3022 RMK AO2
KCBK 110735Z AUTO 26007KT 10SM CLR M02/M12 A3023 RMK AO2
KCBK 110715Z AUTO 25006KT 10SM CLR 01/M12 A3023 RMK AO2
KCBK 110655Z AUTO 28007KT 10SM CLR M01/M12 A3024 RMK AO2
KCBK 110635Z AUTO 29008KT 10SM CLR 00/M12 A3024 RMK AO2
KCBK 110615Z AUTO 28009KT 10SM CLR 01/M12 A3025 RMK AO2
KCBK 110555Z AUTO 28011KT 10SM CLR 01/M12 A3025 RMK AO2
KCBK 110535Z AUTO 28010KT 10SM CLR 01/M12 A3025 RMK AO2
KCBK 110515Z AUTO 28012KT 10SM CLR 02/M12 A3025 RMK AO2
KCBK 110455Z AUTO 27011KT 10SM CLR 01/M12 A3026 RMK AO2
KCBK 110435Z AUTO 28012KT 10SM CLR 01/M12 A3025 RMK AO2
KCBK 110415Z AUTO 28010KT 10SM CLR 01/M11 A3025 RMK AO2
KCBK 110355Z AUTO 27009KT 10SM CLR 00/M12 A3025 RMK AO2
KCBK 110335Z AUTO 27009KT 10SM CLR 01/M11 A3025 RMK AO2
KCBK 110315Z AUTO 27008KT 10SM CLR 00/M11 A3025 RMK AO2
KCBK 110255Z AUTO 26008KT 10SM CLR M02/M12 A3025 RMK AO2
KCBK 110235Z AUTO 27009KT 10SM CLR M01/M12 A3024 RMK AO2
KCBK 110215Z AUTO 27005KT 10SM CLR M01/M12 A3025 RMK AO2